Time;durP1;ratioP1;P1;durP2;ratioP2;P2;SDS_P1;SDS_P2;PMS_P1;PMS_P2;Temp;Humidity;BMP_temperature;BMP_pressure;BME280_temperature;BME280_humidity;BME280_pressure;Samples;Min_cycle;Max_cycle;Signal;HPM_P1;HPM_P2
2023/07/14 00:01:35;;;;;;;1999.90;999.90;;;15.80;99.90;;;;;;4996063;28;20374;-70
2023/07/14 00:04:01;;;;;;;1999.90;999.90;;;15.90;99.90;;;;;;4996217;28;20109;-70
2023/07/14 00:06:27;;;;;;;1999.90;999.90;;;15.90;99.90;;;;;;4996280;28;20086;-70
2023/07/14 00:08:52;;;;;;;1999.90;999.90;;;15.90;99.90;;;;;;4996105;28;20066;-70
2023/07/14 00:11:23;;;;;;;1999.90;999.90;;;15.90;99.90;;;;;;4995345;28;20026;-70
2023/07/14 00:13:51;;;;;;;1999.90;999.90;;;15.80;99.90;;;;;;4995792;28;20035;-70
2023/07/14 00:16:21;;;;;;;1999.90;999.90;;;15.80;99.90;;;;;;4995861;28;20038;-70
2023/07/14 00:18:47;;;;;;;1999.90;999.90;;;15.80;99.90;;;;;;5010818;28;20495;-70
2023/07/14 00:21:22;;;;;;;1999.90;999.90;;;15.80;99.90;;;;;;4995288;28;20039;-70
2023/07/14 00:23:48;;;;;;;1999.90;999.90;;;15.80;99.90;;;;;;4995656;28;20500;-70
2023/07/14 00:26:17;;;;;;;1999.90;999.90;;;15.80;99.90;;;;;;4995579;28;20090;-70
2023/07/14 00:28:43;;;;;;;1999.90;999.90;;;15.70;99.90;;;;;;4995725;28;20045;-70
2023/07/14 00:31:12;;;;;;;1999.90;999.90;;;15.70;99.90;;;;;;4994629;28;20448;-70
2023/07/14 00:33:38;;;;;;;1999.90;999.90;;;15.70;99.90;;;;;;4995711;28;20038;-71
2023/07/14 00:36:05;;;;;;;1999.90;999.90;;;15.70;99.90;;;;;;4995742;28;20031;-70
2023/07/14 00:38:31;;;;;;;1999.90;999.90;;;15.60;99.90;;;;;;4995678;28;20092;-70
2023/07/14 00:40:56;;;;;;;1999.90;999.90;;;15.70;99.90;;;;;;4994633;28;20085;-70
2023/07/14 00:43:27;;;;;;;1999.90;999.90;;;15.70;99.90;;;;;;4995648;28;20089;-70
2023/07/14 00:45:55;;;;;;;1999.90;999.90;;;15.60;99.90;;;;;;4995853;28;20031;-70
2023/07/14 00:48:23;;;;;;;1999.90;999.90;;;15.60;99.90;;;;;;4995604;28;20039;-70
2023/07/14 00:51:03;;;;;;;1999.90;999.90;;;15.60;99.90;;;;;;4995005;28;20087;-70
2023/07/14 00:53:37;;;;;;;1999.90;999.90;;;15.50;99.90;;;;;;4995506;28;20074;-70
2023/07/14 00:56:12;;;;;;;1999.90;999.90;;;15.50;99.90;;;;;;4995141;28;20035;-70
2023/07/14 00:58:47;;;;;;;1999.90;999.90;;;15.40;99.90;;;;;;4995446;28;20121;-70
2023/07/14 01:01:25;;;;;;;1999.90;999.90;;;15.30;99.90;;;;;;4994711;28;20027;-69
2023/07/14 01:03:52;;;;;;;1999.90;999.90;;;15.30;99.90;;;;;;4995492;28;20037;-69
2023/07/14 01:06:29;;;;;;;1999.90;999.90;;;15.20;99.90;;;;;;4995191;28;20031;-70
2023/07/14 01:09:08;;;;;;;1999.90;999.90;;;15.10;99.90;;;;;;5010224;28;20041;-69
2023/07/14 01:11:37;;;;;;;1999.90;999.90;;;15.00;99.90;;;;;;5009587;28;20039;-70
2023/07/14 01:14:07;;;;;;;1999.90;999.90;;;15.00;99.90;;;;;;4995069;28;20039;-70
2023/07/14 01:16:36;;;;;;;1999.90;999.90;;;15.00;99.90;;;;;;4995067;28;20879;-70
2023/07/14 01:19:36;;;;;;;1999.90;999.90;;;15.00;99.90;;;;;;4994689;28;20049;-70
2023/07/14 01:22:26;;;;;;;1999.90;999.90;;;15.00;99.90;;;;;;4960921;28;20035;-70
2023/07/14 01:25:12;;;;;;;1999.90;999.90;;;15.00;99.90;;;;;;4994806;28;20117;-70
2023/07/14 01:27:37;;;;;;;1999.90;999.90;;;15.10;99.90;;;;;;4995298;28;20027;-70
2023/07/14 01:30:04;;;;;;;1999.90;999.90;;;15.10;99.90;;;;;;4993952;28;20039;-70
2023/07/14 01:32:45;;;;;;;1999.90;999.90;;;15.10;99.90;;;;;;4994710;28;20460;-70
2023/07/14 01:35:12;;;;;;;1999.90;999.90;;;15.00;99.90;;;;;;4995112;28;20047;-70
2023/07/14 01:37:39;;;;;;;1999.90;999.90;;;15.00;99.90;;;;;;4994021;28;20090;-70
2023/07/14 01:40:11;;;;;;;1999.90;999.90;;;14.90;99.90;;;;;;4993870;28;20460;-70
2023/07/14 01:42:38;;;;;;;1999.90;999.90;;;15.00;99.90;;;;;;4994902;28;20090;-70
2023/07/14 01:45:09;;;;;;;1999.90;999.90;;;14.90;99.90;;;;;;4997695;28;20042;-70
2023/07/14 01:47:36;;;;;;;1999.90;999.90;;;14.90;99.90;;;;;;4998331;28;20038;-70
2023/07/14 01:50:03;;;;;;;1999.90;999.90;;;14.80;99.90;;;;;;4998057;28;20038;-70
2023/07/14 01:52:31;;;;;;;1999.90;999.90;;;14.80;99.90;;;;;;4997541;28;20074;-69
2023/07/14 01:55:05;;;;;;;1999.90;999.90;;;14.80;99.90;;;;;;4998048;28;20074;-70
2023/07/14 01:57:34;;;;;;;1999.90;999.90;;;14.70;99.90;;;;;;4997884;28;20030;-70
2023/07/14 02:00:08;;;;;;;1999.90;999.90;;;14.70;99.90;;;;;;4997793;28;20393;-70
2023/07/14 02:02:36;;;;;;;1999.90;999.90;;;14.80;99.90;;;;;;4997853;28;20035;-70
2023/07/14 02:05:14;;;;;;;1999.90;999.90;;;14.70;99.90;;;;;;4998013;28;20117;-70
2023/07/14 02:07:40;;;;;;;1999.90;999.90;;;14.70;99.90;;;;;;4997902;28;20472;-70
2023/07/14 02:10:12;;;;;;;1999.90;999.90;;;14.70;99.90;;;;;;4997555;28;20066;-70
2023/07/14 02:12:42;;;;;;;1999.90;999.90;;;14.60;99.90;;;;;;4997783;28;20030;-69
2023/07/14 02:15:11;;;;;;;1999.90;999.90;;;14.60;99.90;;;;;;4997611;28;20073;-70
2023/07/14 02:17:37;;;;;;;1999.90;999.90;;;14.60;99.90;;;;;;4997560;28;20038;-70
2023/07/14 02:20:13;;;;;;;1999.90;999.90;;;14.50;99.90;;;;;;4997544;28;20041;-70
2023/07/14 02:22:39;;;;;;;1999.90;999.90;;;14.50;99.90;;;;;;4997596;28;20027;-69
2023/07/14 02:25:11;;;;;;;1999.90;999.90;;;14.50;99.90;;;;;;4997749;28;20042;-70
2023/07/14 02:27:37;;;;;;;1999.90;999.90;;;14.40;99.90;;;;;;4997818;28;20089;-70
2023/07/14 02:30:13;;;;;;;1999.90;999.90;;;14.50;99.90;;;;;;4996710;28;20042;-70
2023/07/14 02:32:45;;;;;;;1999.90;999.90;;;14.40;99.90;;;;;;4997211;28;20849;-70
2023/07/14 02:35:19;;;;;;;1999.90;999.90;;;14.40;99.90;;;;;;4997539;28;20057;-70
2023/07/14 02:38:01;;;;;;;1999.90;999.90;;;14.40;99.90;;;;;;4997257;28;20047;-70
2023/07/14 02:40:39;;;;;;;1999.90;999.90;;;14.30;99.90;;;;;;4996677;28;20035;-70
2023/07/14 02:43:07;;;;;;;1999.90;999.90;;;14.40;99.90;;;;;;5012134;28;20162;-70
2023/07/14 02:45:37;;;;;;;1999.90;999.90;;;14.30;99.90;;;;;;4997210;28;20035;-70
2023/07/14 02:48:06;;;;;;;1999.90;999.90;;;14.20;99.90;;;;;;4997735;28;20031;-70
2023/07/14 02:50:31;;;;;;;1999.90;999.90;;;14.10;99.90;;;;;;4996978;28;20023;-70
2023/07/14 02:52:57;;;;;;;1999.90;999.90;;;14.00;99.90;;;;;;4996700;28;20027;-70
2023/07/14 02:55:22;;;;;;;1999.90;999.90;;;14.10;99.90;;;;;;4997136;28;20038;-70
2023/07/14 02:57:48;;;;;;;1999.90;999.90;;;14.00;99.90;;;;;;4997335;28;20030;-70
2023/07/14 03:00:15;;;;;;;1999.90;999.90;;;14.00;99.90;;;;;;4996804;28;20027;-70
2023/07/14 03:02:41;;;;;;;1999.90;999.90;;;13.90;99.90;;;;;;4996924;28;20041;-70
2023/07/14 03:05:07;;;;;;;1999.90;999.90;;;13.90;99.90;;;;;;4996995;28;20037;-70
2023/07/14 03:07:35;;;;;;;1999.90;999.90;;;13.80;99.90;;;;;;4996670;28;20030;-70
2023/07/14 03:10:00;;;;;;;1999.90;999.90;;;13.80;99.90;;;;;;4996715;28;20033;-70
2023/07/14 03:12:28;;;;;;;1999.90;999.90;;;13.80;99.90;;;;;;4996576;28;20041;-70
2023/07/14 03:14:54;;;;;;;1999.90;999.90;;;13.80;99.90;;;;;;4996839;28;20038;-69
2023/07/14 03:17:19;;;;;;;1999.90;999.90;;;13.80;99.90;;;;;;4996971;28;20037;-70
2023/07/14 03:19:45;;;;;;;1999.90;999.90;;;13.70;99.90;;;;;;4996606;28;20496;-70
2023/07/14 03:22:10;;;;;;;1999.90;999.90;;;13.80;99.90;;;;;;4996509;28;20035;-69
2023/07/14 03:24:36;;;;;;;1999.90;999.90;;;13.80;99.90;;;;;;4996957;28;20049;-70
2023/07/14 03:27:02;;;;;;;1999.90;999.90;;;13.80;99.90;;;;;;4996881;28;20035;-70
2023/07/14 03:29:27;;;;;;;1999.90;999.90;;;13.80;99.90;;;;;;4996628;28;20512;-70
2023/07/14 03:31:53;;;;;;;1999.90;999.90;;;13.80;99.90;;;;;;4996473;28;20034;-69
2023/07/14 03:34:19;;;;;;;1999.90;999.90;;;13.80;99.90;;;;;;4996798;28;20077;-70
2023/07/14 03:36:44;;;;;;;1999.90;999.90;;;13.80;99.90;;;;;;4996564;28;20105;-70
2023/07/14 03:39:27;;;;;;;1999.90;999.90;;;13.80;99.90;;;;;;4996065;28;20049;-70
2023/07/14 03:41:55;;;;;;;1999.90;999.90;;;13.80;99.90;;;;;;4996445;28;20058;-70
2023/07/14 03:44:21;;;;;;;1999.90;999.90;;;13.70;99.90;;;;;;4996556;28;20039;-70
2023/07/14 03:46:47;;;;;;;1999.90;999.90;;;13.70;99.90;;;;;;4996599;28;20031;-70
2023/07/14 03:49:13;;;;;;;1999.90;999.90;;;13.70;99.90;;;;;;4996317;28;20043;-69
2023/07/14 03:51:40;;;;;;;1999.90;999.90;;;13.70;99.90;;;;;;5015332;28;20134;-70
2023/07/14 03:54:06;;;;;;;1999.90;999.90;;;13.70;99.90;;;;;;5015487;28;20089;-70
2023/07/14 03:56:31;;;;;;;1999.90;999.90;;;13.80;99.90;;;;;;5013528;28;20117;-70
2023/07/14 03:58:57;;;;;;;1999.90;999.90;;;13.90;99.90;;;;;;5016202;28;20042;-70
2023/07/14 04:01:23;;;;;;;1999.90;999.90;;;14.00;99.90;;;;;;5015482;28;20030;-70
2023/07/14 04:03:48;;;;;;;1999.90;999.90;;;14.10;99.90;;;;;;5015926;28;20042;-70
2023/07/14 04:06:15;;;;;;;1999.90;999.90;;;14.20;99.90;;;;;;5015356;28;20515;-70
2023/07/14 04:08:43;;;;;;;1999.90;999.90;;;14.30;99.90;;;;;;5015765;28;20121;-70
2023/07/14 04:11:10;;;;;;;1999.90;999.90;;;14.40;99.90;;;;;;5015192;28;20027;-70
2023/07/14 04:13:36;;;;;;;1999.90;999.90;;;14.50;99.90;;;;;;5015613;28;20042;-70
2023/07/14 04:16:03;;;;;;;1999.90;999.90;;;14.70;99.90;;;;;;5015498;28;20037;-70
2023/07/14 04:18:30;;;;;;;1999.90;999.90;;;14.80;99.90;;;;;;5015343;28;20527;-70
2023/07/14 04:21:00;;;;;;;1999.90;999.90;;;14.80;99.90;;;;;;5014847;28;20042;-70
2023/07/14 04:23:25;;;;;;;1999.90;999.90;;;14.80;99.90;;;;;;5015650;28;20034;-70
2023/07/14 04:25:51;;;;;;;1999.90;999.90;;;14.70;99.90;;;;;;5015595;28;20030;-69
2023/07/14 04:28:17;;;;;;;1999.90;999.90;;;14.90;99.90;;;;;;5015730;28;20105;-70
2023/07/14 04:30:42;;;;;;;1999.90;999.90;;;15.00;99.90;;;;;;5014713;28;20037;-70
2023/07/14 04:33:08;;;;;;;1999.90;999.90;;;15.10;99.90;;;;;;5015202;28;20038;-70
2023/07/14 04:35:33;;;;;;;1999.90;999.90;;;15.20;99.90;;;;;;5015361;28;20034;-70
2023/07/14 04:37:59;;;;;;;1999.90;999.90;;;15.40;99.90;;;;;;5015177;28;20042;-70
2023/07/14 04:40:24;;;;;;;1999.90;999.90;;;15.40;99.90;;;;;;5014708;28;20042;-69
2023/07/14 04:42:50;;;;;;;1999.90;999.90;;;15.50;99.90;;;;;;5015029;28;20038;-69
2023/07/14 04:45:20;;;;;;;1999.90;999.90;;;15.50;99.90;;;;;;5015277;28;20031;-70
2023/07/14 04:47:46;;;;;;;1999.90;999.90;;;15.50;99.90;;;;;;5015277;28;20030;-69
2023/07/14 04:50:12;;;;;;;1999.90;999.90;;;15.50;99.90;;;;;;5014916;28;20037;-69
2023/07/14 04:52:37;;;;;;;1999.90;999.90;;;15.50;99.90;;;;;;5015050;28;20515;-69
2023/07/14 04:55:03;;;;;;;1999.90;999.90;;;15.50;99.90;;;;;;5014944;28;20026;-69
2023/07/14 04:57:29;;;;;;;1999.90;999.90;;;15.50;99.90;;;;;;5015025;28;20043;-69
2023/07/14 04:59:54;;;;;;;1999.90;999.90;;;15.60;99.90;;;;;;5015003;28;20432;-69
2023/07/14 05:02:20;;;;;;;1999.90;999.90;;;15.70;99.90;;;;;;5015101;28;20393;-69
2023/07/14 05:05:12;;;;;;;1999.90;999.90;;;15.80;99.90;;;;;;5014910;28;20026;-69
2023/07/14 05:07:38;;;;;;;1999.90;999.90;;;15.80;99.90;;;;;;5014802;28;20030;-69
2023/07/14 05:10:03;;;;;;;1999.90;999.90;;;16.00;99.90;;;;;;5014639;28;20046;-69
2023/07/14 05:12:29;;;;;;;1999.90;999.90;;;16.10;99.90;;;;;;5014643;28;20093;-70
2023/07/14 05:14:54;;;;;;;1999.90;999.90;;;16.20;99.90;;;;;;5014598;28;20026;-69
2023/07/14 05:17:20;;;;;;;1999.90;999.90;;;16.30;99.90;;;;;;5014288;28;20038;-69
2023/07/14 05:19:45;;;;;;;1999.90;999.90;;;16.30;99.90;;;;;;5013530;28;20093;-69
2023/07/14 05:22:11;;;;;;;1999.90;999.90;;;16.40;99.90;;;;;;5014330;28;20081;-69
2023/07/14 05:24:37;;;;;;;1999.90;999.90;;;16.50;99.90;;;;;;5014932;28;20030;-70
2023/07/14 05:27:02;;;;;;;1999.90;999.90;;;16.60;99.90;;;;;;5014701;28;20030;-71
2023/07/14 05:29:28;;;;;;;1999.90;999.90;;;16.70;99.90;;;;;;5014112;28;20049;-70
2023/07/14 05:31:53;;;;;;;1999.90;999.90;;;16.80;99.90;;;;;;5014241;28;20114;-71
2023/07/14 05:34:19;;;;;;;1999.90;999.90;;;16.90;99.90;;;;;;5014491;28;20511;-70
2023/07/14 05:36:44;;;;;;;1999.90;999.90;;;17.00;99.90;;;;;;5014670;28;20035;-70
2023/07/14 05:39:10;;;;;;;1999.90;999.90;;;17.20;99.90;;;;;;5028950;28;20034;-70
2023/07/14 05:41:35;;;;;;;1999.90;999.90;;;17.40;99.90;;;;;;5012780;28;20065;-71
2023/07/14 05:44:03;;;;;;;1999.90;999.90;;;17.50;99.90;;;;;;5014589;28;20046;-71
2023/07/14 05:46:29;;;;;;;1999.90;999.90;;;17.70;99.90;;;;;;5029659;28;20389;-70
2023/07/14 05:48:54;;;;;;;1999.90;999.90;;;17.90;99.90;;;;;;5029336;28;20038;-70
2023/07/14 05:51:21;;;;;;;1999.90;999.90;;;18.00;99.90;;;;;;5013989;28;20035;-70
2023/07/14 05:53:46;;;;;;;1999.90;999.90;;;18.20;99.90;;;;;;5012973;28;20041;-73
2023/07/14 05:56:12;;;;;;;1999.90;999.90;;;18.10;99.90;;;;;;5014459;28;20030;-69
2023/07/14 05:58:38;;;;;;;1999.90;999.90;;;18.10;99.90;;;;;;5014291;28;20038;-70
2023/07/14 06:01:04;;;;;;;1999.90;999.90;;;18.30;99.80;;;;;;5028850;28;20034;-69
2023/07/14 06:03:29;;;;;;;1999.90;999.90;;;18.30;99.70;;;;;;5012670;28;20113;-69
2023/07/14 06:05:56;;;;;;;1999.90;999.90;;;18.30;99.90;;;;;;5013836;28;20063;-69
2023/07/14 06:08:21;;;;;;;1999.90;999.90;;;18.40;99.90;;;;;;5014223;28;20034;-69
2023/07/14 06:10:48;;;;;;;1999.90;999.90;;;18.40;99.90;;;;;;5013865;28;20481;-70
2023/07/14 06:13:14;;;;;;;1999.90;999.90;;;18.60;99.90;;;;;;5013983;28;20044;-68
2023/07/14 06:15:39;;;;;;;1999.90;999.90;;;18.90;99.90;;;;;;5014147;28;20037;-68
2023/07/14 06:18:05;;;;;;;1999.90;999.90;;;19.10;99.90;;;;;;5013929;28;20038;-69
2023/07/14 06:20:30;;;;;;;1999.90;999.90;;;19.20;99.40;;;;;;5013893;28;20117;-69
2023/07/14 06:22:56;;;;;;;1999.90;999.90;;;19.50;99.10;;;;;;5013600;28;20492;-69
2023/07/14 06:25:21;;;;;;;1999.90;999.90;;;19.60;99.20;;;;;;5013837;28;20114;-70
2023/07/14 06:27:47;;;;;;;1999.90;999.90;;;19.50;98.90;;;;;;5013552;28;20034;-69
2023/07/14 06:30:13;;;;;;;1999.90;999.90;;;19.40;98.90;;;;;;5014354;28;20377;-69
2023/07/14 06:32:39;;;;;;;1999.90;999.90;;;19.40;98.00;;;;;;5016941;28;20042;-70
2023/07/14 06:35:06;;;;;;;1999.90;999.90;;;19.50;98.40;;;;;;5016960;28;20037;-69
2023/07/14 06:37:32;;;;;;;1999.90;999.90;;;19.70;97.80;;;;;;5017092;28;20030;-69
2023/07/14 06:39:57;;;;;;;1999.90;999.90;;;19.80;97.90;;;;;;5031902;28;20050;-70
2023/07/14 06:42:23;;;;;;;1999.90;999.90;;;20.20;97.30;;;;;;5017000;28;20031;-70
2023/07/14 06:44:48;;;;;;;1999.90;999.90;;;20.20;97.20;;;;;;5015637;28;20504;-69
2023/07/14 06:47:14;;;;;;;1999.90;999.90;;;20.10;96.60;;;;;;5016975;28;20519;-69
2023/07/14 06:49:40;;;;;;;1999.90;999.90;;;20.00;96.60;;;;;;5016767;28;20089;-69
2023/07/14 06:52:07;;;;;;;1999.90;999.90;;;19.90;97.30;;;;;;5016746;28;20583;-70
2023/07/14 06:54:32;;;;;;;1999.90;999.90;;;19.80;96.60;;;;;;5016866;28;20030;-69
2023/07/14 06:56:58;;;;;;;1999.90;999.90;;;19.70;96.90;;;;;;5016993;28;20034;-69
2023/07/14 06:59:24;;;;;;;1999.90;999.90;;;19.50;96.50;;;;;;5016458;28;20093;-69
2023/07/14 07:01:49;;;;;;;1999.90;999.90;;;19.60;96.40;;;;;;5016555;28;20041;-69
2023/07/14 07:04:15;;;;;;;1999.90;999.90;;;19.90;96.40;;;;;;5016684;28;20472;-69
2023/07/14 07:06:40;;;;;;;1999.90;999.90;;;20.20;98.20;;;;;;5016720;28;20396;-70
2023/07/14 07:09:06;;;;;;;1999.90;999.90;;;20.40;95.90;;;;;;5016484;28;20063;-69
2023/07/14 07:11:32;;;;;;;1999.90;999.90;;;20.60;96.10;;;;;;5016165;28;20031;-69
2023/07/14 07:13:57;;;;;;;1999.90;999.90;;;20.90;94.90;;;;;;5016616;28;20404;-69
2023/07/14 07:16:23;;;;;;;1999.90;999.90;;;21.50;94.20;;;;;;5016460;28;20400;-70
2023/07/14 07:18:48;;;;;;;1999.90;999.90;;;21.90;94.00;;;;;;5016379;28;20427;-69
2023/07/14 07:21:14;;;;;;;1999.90;999.90;;;22.20;93.30;;;;;;5016270;28;20522;-70
2023/07/14 07:23:40;;;;;;;1999.90;999.90;;;22.00;91.10;;;;;;5015767;28;20038;-70
2023/07/14 07:26:06;;;;;;;1999.90;999.90;;;22.00;91.40;;;;;;5015437;28;20034;-69
2023/07/14 07:28:32;;;;;;;1999.90;999.90;;;22.00;91.20;;;;;;5015257;28;20043;-69
2023/07/14 07:30:57;;;;;;;1999.90;999.90;;;22.10;90.50;;;;;;5014735;28;20030;-70
2023/07/14 07:33:22;;;;;;;1999.90;999.90;;;22.20;90.50;;;;;;5015028;28;20034;-69
2023/07/14 07:35:49;;;;;;;1999.90;999.90;;;22.40;90.30;;;;;;5015254;28;20100;-69
2023/07/14 07:38:14;;;;;;;1999.90;999.90;;;22.70;89.00;;;;;;5015400;28;20034;-69
2023/07/14 07:40:44;;;;;;;1999.90;999.90;;;23.00;87.80;;;;;;5015376;28;20031;-69
2023/07/14 07:43:09;;;;;;;1999.90;999.90;;;23.60;87.10;;;;;;5015443;28;20062;-69
2023/07/14 07:45:35;;;;;;;1999.90;999.90;;;23.90;86.00;;;;;;5016379;28;20069;-69
2023/07/14 07:48:00;;;;;;;1999.90;999.90;;;23.90;86.00;;;;;;5031508;28;20080;-70
2023/07/14 07:50:26;;;;;;;1999.90;999.90;;;23.90;85.10;;;;;;5016137;28;20045;-70
2023/07/14 07:52:52;;;;;;;1999.90;999.90;;;23.80;86.40;;;;;;5015907;28;20034;-70
2023/07/14 07:55:18;;;;;;;1999.90;999.90;;;23.80;85.40;;;;;;5016000;28;20492;-69
2023/07/14 07:57:47;;;;;;;1999.90;999.90;;;24.00;85.30;;;;;;5015911;28;20062;-69
2023/07/14 08:00:12;;;;;;;1999.90;999.90;;;24.10;85.70;;;;;;5015384;28;20034;-70
2023/07/14 08:02:38;;;;;;;1999.90;999.90;;;24.10;85.20;;;;;;5015739;28;20030;-69
2023/07/14 08:05:04;;;;;;;1999.90;999.90;;;24.10;85.20;;;;;;5015925;28;20531;-69
2023/07/14 08:07:30;;;;;;;1999.90;999.90;;;24.30;86.30;;;;;;5015798;28;20445;-69
2023/07/14 08:09:56;;;;;;;1999.90;999.90;;;24.40;85.60;;;;;;5015545;28;20042;-70
2023/07/14 08:12:21;;;;;;;1999.90;999.90;;;24.70;84.60;;;;;;5015292;28;20030;-70
2023/07/14 08:14:55;;;;;;;1999.90;999.90;;;24.80;82.50;;;;;;5015893;28;20074;-73
2023/07/14 08:17:24;;;;;;;1999.90;999.90;;;24.90;80.00;;;;;;5015830;28;20030;-75
2023/07/14 08:19:50;;;;;;;1999.90;999.90;;;25.10;78.90;;;;;;5015359;28;20583;-71
2023/07/14 08:22:16;;;;;;;1999.90;999.90;;;25.40;78.90;;;;;;5015255;28;20481;-70
2023/07/14 08:24:42;;;;;;;1999.90;999.90;;;25.50;78.90;;;;;;5015577;28;20034;-70
2023/07/14 08:27:07;;;;;;;1999.90;999.90;;;25.50;77.40;;;;;;5015590;28;20046;-70
2023/07/14 08:29:33;;;;;;;1999.90;999.90;;;25.70;75.70;;;;;;5015150;28;20034;-70
2023/07/14 08:31:59;;;;;;;1999.90;999.90;;;25.90;74.80;;;;;;5015237;28;20037;-70
2023/07/14 08:34:27;;;;;;;1999.90;999.90;;;26.10;74.60;;;;;;5015460;28;20125;-71
2023/07/14 08:36:53;;;;;;;1999.90;999.90;;;26.20;74.70;;;;;;5014585;28;20033;-71
2023/07/14 08:39:18;;;;;;;1999.90;999.90;;;26.50;74.80;;;;;;5014663;28;20041;-71
2023/07/14 08:41:46;;;;;;;1999.90;999.90;;;26.80;73.50;;;;;;5015136;28;20406;-71
2023/07/14 08:44:18;;;;;;;1999.90;999.90;;;27.00;72.60;;;;;;5030288;28;20099;-70
2023/07/14 08:46:55;;;;;;;1999.90;999.90;;;26.70;71.40;;;;;;5015121;28;20096;-71
2023/07/14 08:49:24;;;;;;;1999.90;999.90;;;26.40;72.20;;;;;;5050385;22;20054;-73
2023/07/14 08:51:58;;;;;;;1999.90;999.90;;;26.30;71.90;;;;;;5054175;28;20049;-73
2023/07/14 08:54:32;;;;;;;1999.90;999.90;;;26.70;72.40;;;;;;5053484;28;20088;-73
2023/07/14 08:57:03;;;;;;;1999.90;999.90;;;27.00;72.00;;;;;;5053429;28;20446;-73
2023/07/14 08:59:38;;;;;;;1999.90;999.90;;;27.40;70.50;;;;;;5042170;28;20050;-72
2023/07/14 09:02:23;;;;;;;1999.90;999.90;;;27.50;69.60;;;;;;5032667;28;20594;-72
2023/07/14 09:05:08;;;;;;;1999.90;999.90;;;27.30;69.40;;;;;;5033096;28;20436;-73
2023/07/14 09:07:35;;;;;;;1999.90;999.90;;;27.50;67.90;;;;;;5034832;28;20034;-72
2023/07/14 09:10:01;;;;;;;1999.90;999.90;;;27.70;66.30;;;;;;5034527;28;20037;-69
2023/07/14 09:12:51;;;;;;;1999.90;999.90;;;27.60;64.50;;;;;;5033173;28;20029;-73
2023/07/14 09:15:22;;;;;;;1999.90;999.90;;;27.70;66.10;;;;;;5034637;28;20478;-71
2023/07/14 09:17:53;;;;;;;1999.90;999.90;;;27.90;66.20;;;;;;5034843;28;20545;-72
2023/07/14 09:20:40;;;;;;;1999.90;999.90;;;28.40;63.60;;;;;;5034122;28;20038;-72
2023/07/14 09:23:12;;;;;;;1999.90;999.90;;;28.70;62.40;;;;;;5032782;28;20041;-72
2023/07/14 09:26:16;;;;;;;1999.90;999.90;;;28.50;64.50;;;;;;5034025;28;20034;-70
2023/07/14 09:28:51;;;;;;;1999.90;999.90;;;28.30;61.30;;;;;;5011720;28;20504;-70
2023/07/14 09:31:44;;;;;;;1999.90;999.90;;;28.60;62.30;;;;;;5031380;28;20057;-75
2023/07/14 09:34:12;;;;;;;1999.90;999.90;;;28.90;61.50;;;;;;5034710;28;20033;-71
2023/07/14 09:36:39;;;;;;;1999.90;999.90;;;28.70;61.60;;;;;;5034546;28;20037;-71
2023/07/14 09:39:10;;;;;;;1999.90;999.90;;;28.30;60.70;;;;;;5033907;28;20048;-71
2023/07/14 09:41:35;;;;;;;1999.90;999.90;;;27.90;61.40;;;;;;5034032;28;20030;-71
2023/07/14 09:44:01;;;;;;;1999.90;999.90;;;28.30;61.60;;;;;;5034458;28;20038;-71
2023/07/14 09:46:46;;;;;;;1999.90;999.90;;;28.50;59.50;;;;;;5034438;28;20033;-71
2023/07/14 09:49:40;;;;;;;1999.90;999.90;;;28.80;59.30;;;;;;5032898;28;20034;-71
2023/07/14 09:52:21;;;;;;;1999.90;999.90;;;28.60;59.30;;;;;;5031055;28;20129;-71
2023/07/14 09:54:55;;;;;;;1999.90;999.90;;;28.80;61.70;;;;;;5034377;28;20030;-71
2023/07/14 09:57:24;;;;;;;1999.90;999.90;;;29.50;58.70;;;;;;5034407;28;20034;-71
2023/07/14 09:59:56;;;;;;;1999.90;999.90;;;30.20;58.80;;;;;;5033719;28;20526;-71
2023/07/14 10:02:34;;;;;;;1999.90;999.90;;;30.40;58.00;;;;;;5033865;28;20026;-71
2023/07/14 10:05:22;;;;;;;1999.90;999.90;;;30.60;56.60;;;;;;5035496;28;20025;-71
2023/07/14 10:07:47;;;;;;;1999.90;999.90;;;30.40;56.10;;;;;;5037153;28;20033;-71
2023/07/14 10:10:19;;;;;;;1999.90;999.90;;;30.50;56.00;;;;;;5037149;28;20385;-71
2023/07/14 10:12:46;;;;;;;1999.90;999.90;;;30.10;56.70;;;;;;5037082;28;20056;-71
2023/07/14 10:15:26;;;;;;;1999.90;999.90;;;30.00;55.30;;;;;;5037258;28;20033;-71
2023/07/14 10:17:53;;;;;;;1999.90;999.90;;;30.00;56.40;;;;;;5035919;28;20944;-72
2023/07/14 10:20:21;;;;;;;1999.90;999.90;;;29.50;57.40;;;;;;5035604;28;20034;-71
2023/07/14 10:22:53;;;;;;;1999.90;999.90;;;29.50;58.40;;;;;;5037137;28;20037;-74
2023/07/14 10:25:20;;;;;;;1999.90;999.90;;;29.80;58.30;;;;;;5037237;28;20030;-72
2023/07/14 10:28:06;;;;;;;1999.90;999.90;;;30.10;56.50;;;;;;5037679;28;20054;-72
2023/07/14 10:30:42;;;;;;;1999.90;999.90;;;30.10;57.50;;;;;;5037264;28;20034;-71
2023/07/14 10:33:20;;;;;;;1999.90;999.90;;;29.70;56.70;;;;;;5037210;28;20041;-71
2023/07/14 10:35:50;;;;;;;1999.90;999.90;;;29.50;55.60;;;;;;5037474;28;20026;-71
2023/07/14 10:38:25;;;;;;;1999.90;999.90;;;29.90;57.10;;;;;;5035542;28;20047;-71
2023/07/14 10:41:02;;;;;;;1999.90;999.90;;;30.10;56.70;;;;;;5036994;28;20030;-71
2023/07/14 10:43:38;;;;;;;1999.90;999.90;;;29.90;57.00;;;;;;5036665;28;20183;-71
2023/07/14 10:46:13;;;;;;;1999.90;999.90;;;29.50;57.40;;;;;;5017118;28;20122;-71
2023/07/14 10:48:47;;;;;;;1999.90;999.90;;;29.90;56.80;;;;;;5016582;28;20081;-72
2023/07/14 10:51:21;;;;;;;1999.90;999.90;;;30.50;55.70;;;;;;5015233;28;20035;-71
2023/07/14 10:53:57;;;;;;;1999.90;999.90;;;30.40;56.20;;;;;;5015509;28;20073;-71
2023/07/14 10:56:47;;;;;;;1999.90;999.90;;;30.40;54.20;;;;;;5017071;28;20026;-72
2023/07/14 10:59:23;;;;;;;1999.90;999.90;;;30.70;54.90;;;;;;5016260;28;20046;-72
2023/07/14 11:02:07;;;;;;;1999.90;999.90;;;30.90;54.80;;;;;;5016747;28;20030;-73
2023/07/14 11:04:38;;;;;;;1999.90;999.90;;;31.00;56.40;;;;;;5016562;28;20068;-73
2023/07/14 11:07:06;;;;;;;1999.90;999.90;;;31.20;56.20;;;;;;5017077;28;20026;-73
2023/07/14 11:09:32;;;;;;;1999.90;999.90;;;31.00;54.30;;;;;;5016776;28;20039;-73
2023/07/14 11:12:08;;;;;;;1999.90;999.90;;;31.40;52.20;;;;;;5016578;28;20030;-73
2023/07/14 11:15:07;;;;;;;1999.90;999.90;;;31.90;54.20;;;;;;5016682;28;20567;-74
2023/07/14 11:17:56;;;;;;;1999.90;999.90;;;32.10;52.40;;;;;;5017083;28;20031;-73
2023/07/14 11:20:41;;;;;;;1999.90;999.90;;;31.30;51.80;;;;;;5016404;28;20516;-73
2023/07/14 11:23:23;;;;;;;1999.90;999.90;;;31.20;53.50;;;;;;5016553;28;20038;-73
2023/07/14 11:26:08;;;;;;;1999.90;999.90;;;30.70;56.10;;;;;;5016716;28;20496;-73
2023/07/14 11:28:40;;;;;;;1999.90;999.90;;;30.80;55.20;;;;;;5016890;28;20041;-72
2023/07/14 11:31:20;;;;;;;1999.90;999.90;;;31.00;55.70;;;;;;5016173;28;20026;-73
2023/07/14 11:34:16;;;;;;;1999.90;999.90;;;31.20;54.10;;;;;;5016625;28;20125;-73
2023/07/14 11:36:57;;;;;;;1999.90;999.90;;;31.20;53.30;;;;;;5016396;28;20026;-73
2023/07/14 11:39:37;;;;;;;1999.90;999.90;;;31.20;54.10;;;;;;5016161;28;20052;-72
2023/07/14 11:42:05;;;;;;;1999.90;999.90;;;31.40;53.20;;;;;;5018253;28;20456;-72
2023/07/14 11:44:30;;;;;;;1999.90;999.90;;;31.60;51.70;;;;;;5016683;28;20390;-73
2023/07/14 11:46:58;;;;;;;1999.90;999.90;;;31.20;52.60;;;;;;5015830;28;20046;-73
2023/07/14 11:49:51;;;;;;;1999.90;999.90;;;31.30;54.50;;;;;;5032136;28;20045;-72
2023/07/14 11:52:24;;;;;;;1999.90;999.90;;;30.90;53.10;;;;;;5034864;28;20044;-72
2023/07/14 11:55:18;;;;;;;1999.90;999.90;;;30.10;54.80;;;;;;5034273;28;20041;-73
2023/07/14 11:58:00;;;;;;;1999.90;999.90;;;30.00;54.30;;;;;;5035611;28;20026;-73
2023/07/14 12:00:26;;;;;;;1999.90;999.90;;;30.10;56.20;;;;;;5035661;28;20045;-73
2023/07/14 12:02:58;;;;;;;1999.90;999.90;;;30.50;54.70;;;;;;5033990;28;20037;-72
2023/07/14 12:05:27;;;;;;;1999.90;999.90;;;30.80;52.50;;;;;;5036430;28;20523;-73
2023/07/14 12:08:04;;;;;;;1999.90;999.90;;;30.60;52.20;;;;;;5035951;28;20034;-73
2023/07/14 12:10:44;;;;;;;1999.90;999.90;;;30.40;55.10;;;;;;5035165;28;20061;-73
2023/07/14 12:13:20;;;;;;;1999.90;999.90;;;30.40;53.40;;;;;;5035414;28;20033;-73